Ana Sayfa
METAR-TAF:

METAR-TAF

Havaalanları :

Kasane, Botsvana

Enlem: 17-49S, Boylam: 025-09E, yükseklik: 968 m

Güncel hava durumu gözlemi

Rapor saat 17:00 UTC de 1 saat ve 8 dakika önce yapıldı.
Rüzgar kuzey/kuzeydoğudan 4 kt
Sıcaklık 30°C
Nem 27%
Basınç 1011 hPa
Görüş mesafesi 10 km veya daha fazla
1500 m altında bulut yok ve kümülonimbus yok

METAR: FBKE 181700Z 02004KT CAVOK 30/09 Q1011

Saat: 20:08 (18:08 UTC)

Tahmin

Rapor saat 12:00 UTC de 6 saat ve 8 dakika önce yapıldı.
Ayın 18'si saat 15 UTC'den ayın 18'si saat 24 UTC'ye kadar geçerli Tahmin
Rüzgar güneydan 8 kt
Görüş mesafesi 10 km veya daha fazla
1500 m altında bulut yok ve kümülonimbus yok

TAF: FBKE 181200Z 1815/1824 17008KT CAVOK

4.000'den fazla havaalanı için hava durumu gözlemleri ve tahminleri (METAR ve TAF raporları).

Kullanılabilir istasyonlar harita üzerinde sarı ve kırmızı noktalarla gösterilir.

İstasyonun adını görmek için fareyi noktanın üzerinde gezdirin.

Sonrasında hava gözlem ve tahminlerini görmek için tıklayın.

Haritayı değiştirmek için: yaklaştırmak için siyah artı işaretli yeşil düğmeye ve uzaklaştırmak için de eksi işaretli düğmeye hızla tıklayın; bitişik haritalar için yeşil okları kullanın.


METAR-TAF: